createdAt,value
2022-12-27T00:00:51.743Z,82.37
2022-12-27T00:03:38.472Z,82.60
2022-12-27T00:06:25.411Z,82.75
2022-12-27T00:09:11.743Z,82.92
2022-12-27T00:11:59.917Z,82.70
2022-12-27T00:14:46.587Z,82.87
2022-12-27T00:17:33.066Z,83.08
2022-12-27T00:20:19.747Z,82.85
2022-12-27T00:23:06.758Z,82.89
2022-12-27T00:26:03.357Z,82.97
2022-12-27T00:28:50.515Z,82.44
2022-12-27T00:31:37.241Z,82.66
2022-12-27T00:34:23.659Z,82.29
2022-12-27T00:37:09.873Z,82.18
2022-12-27T00:39:56.562Z,81.78
2022-12-27T00:42:43.340Z,81.77
2022-12-27T00:45:29.950Z,81.77
2022-12-27T00:48:16.693Z,81.98
2022-12-27T00:51:16.560Z,82.02
2022-12-27T00:54:02.986Z,82.37
2022-12-27T00:56:49.447Z,82.33
2022-12-27T00:59:35.676Z,82.68
2022-12-27T01:02:22.403Z,82.49
2022-12-27T01:05:08.957Z,82.93
2022-12-27T01:07:55.420Z,83.09
2022-12-27T01:10:42.155Z,83.45
2022-12-27T01:13:28.694Z,83.30
2022-12-27T01:16:20.650Z,83.36
2022-12-27T01:19:06.774Z,83.57
2022-12-27T01:21:53.492Z,83.85
2022-12-27T01:24:39.798Z,84.25
2022-12-27T01:27:26.125Z,84.07
2022-12-27T01:30:12.866Z,84.23
2022-12-27T01:32:59.603Z,84.02
2022-12-27T01:35:46.067Z,83.72
2022-12-27T01:38:32.773Z,83.69
2022-12-27T01:41:42.828Z,83.72
2022-12-27T01:44:38.872Z,83.88
2022-12-27T01:47:49.613Z,83.78
2022-12-27T01:50:38.594Z,83.55
2022-12-27T01:53:33.307Z,83.28
2022-12-27T01:56:24.432Z,83.18
2022-12-27T01:59:11.003Z,83.07
2022-12-27T02:01:57.703Z,82.94
2022-12-27T02:04:43.988Z,82.95
2022-12-27T02:07:35.243Z,82.90
2022-12-27T02:10:21.694Z,83.20
2022-12-27T02:13:08.129Z,83.51
2022-12-27T02:15:54.971Z,83.60
2022-12-27T02:18:41.244Z,83.35
2022-12-27T02:22:05.835Z,83.29
2022-12-27T02:24:58.143Z,83.35
2022-12-27T02:27:52.735Z,83.58
2022-12-27T02:30:39.086Z,83.52
2022-12-27T02:33:27.313Z,83.57
2022-12-27T02:36:18.953Z,83.66
2022-12-27T02:39:05.541Z,83.61
2022-12-27T02:42:10.497Z,83.26
2022-12-27T02:45:15.949Z,83.15
2022-12-27T02:48:21.149Z,83.41
2022-12-27T02:51:40.928Z,83.59
2022-12-27T02:54:35.539Z,83.61
2022-12-27T02:57:53.051Z,83.42
2022-12-27T03:01:31.836Z,83.18
2022-12-27T03:04:35.869Z,82.94
2022-12-27T03:07:31.544Z,82.04
2022-12-27T03:11:07.275Z,81.95
2022-12-27T03:14:48.825Z,82.02
2022-12-27T03:17:39.085Z,82.03
2022-12-27T03:20:44.228Z,82.27
2022-12-27T03:23:48.823Z,82.14
2022-12-27T03:26:36.062Z,82.45
2022-12-27T03:29:40.693Z,82.74
2022-12-27T03:32:45.809Z,83.09
2022-12-27T03:35:32.198Z,83.27
2022-12-27T03:38:18.818Z,83.10
2022-12-27T03:41:24.965Z,83.00
2022-12-27T03:44:24.576Z,82.96
2022-12-27T03:47:35.200Z,82.98
2022-12-27T03:50:24.967Z,82.92
2022-12-27T03:53:16.108Z,82.82
2022-12-27T03:56:03.076Z,82.59
2022-12-27T03:58:49.586Z,82.18
2022-12-27T04:01:36.229Z,82.07
2022-12-27T04:04:22.645Z,82.03
2022-12-27T04:07:09.191Z,81.87
2022-12-27T04:10:14.014Z,81.82
2022-12-27T04:13:19.012Z,81.88
2022-12-27T04:16:24.760Z,81.87
2022-12-27T04:19:29.911Z,81.69
2022-12-27T04:22:35.299Z,81.20
2022-12-27T04:25:40.100Z,80.79
2022-12-27T04:28:44.800Z,80.31
2022-12-27T04:31:49.709Z,80.14
2022-12-27T04:34:44.714Z,79.86
2022-12-27T04:37:31.310Z,79.76
2022-12-27T04:40:36.200Z,79.89
2022-12-27T04:43:41.003Z,79.60
2022-12-27T04:46:45.869Z,79.72
2022-12-27T04:49:50.704Z,79.49
2022-12-27T04:52:56.101Z,79.70
2022-12-27T04:55:42.308Z,79.80
2022-12-27T04:58:28.615Z,79.63
2022-12-27T05:01:33.917Z,79.66
2022-12-27T05:04:20.670Z,79.76
2022-12-27T05:07:26.623Z,80.11
2022-12-27T05:10:32.333Z,79.76
2022-12-27T05:13:37.156Z,80.04
2022-12-27T05:16:24.033Z,79.71
2022-12-27T05:19:12.456Z,79.99
2022-12-27T05:22:17.465Z,79.82
2022-12-27T05:25:22.669Z,80.01
2022-12-27T05:28:10.146Z,80.11
2022-12-27T05:31:00.898Z,80.31
2022-12-27T05:33:47.742Z,80.01
2022-12-27T05:36:34.214Z,79.98
2022-12-27T05:39:20.394Z,80.30
2022-12-27T05:42:06.685Z,80.41
2022-12-27T05:44:53.474Z,79.78
2022-12-27T05:47:40.475Z,80.22
2022-12-27T05:50:27.281Z,80.12
2022-12-27T05:53:14.541Z,80.01
2022-12-27T05:56:01.423Z,80.09
2022-12-27T05:58:48.139Z,79.94
2022-12-27T06:01:34.972Z,79.73
2022-12-27T06:04:21.513Z,79.63
2022-12-27T06:07:10.290Z,79.73
2022-12-27T06:09:56.454Z,79.47
2022-12-27T06:12:43.267Z,79.45
2022-12-27T06:15:29.471Z,79.70
2022-12-27T06:18:15.907Z,79.57
2022-12-27T06:21:06.807Z,79.72
2022-12-27T06:23:53.735Z,79.57
2022-12-27T06:26:40.351Z,79.91
2022-12-27T06:29:26.591Z,79.85
2022-12-27T06:32:12.934Z,79.85
2022-12-27T06:34:59.527Z,79.64
2022-12-27T06:37:46.306Z,79.66
2022-12-27T06:40:32.336Z,79.89
2022-12-27T06:43:18.390Z,79.89
2022-12-27T06:46:06.512Z,79.58
2022-12-27T06:48:53.176Z,79.68
2022-12-27T06:51:39.663Z,79.51
2022-12-27T06:54:26.127Z,79.30
2022-12-27T06:57:12.204Z,78.93
2022-12-27T06:59:58.883Z,78.68
2022-12-27T07:02:45.617Z,78.80
2022-12-27T07:05:34.697Z,78.77
2022-12-27T07:08:21.303Z,78.59
2022-12-27T07:11:09.400Z,78.70
2022-12-27T07:13:56.180Z,78.28
2022-12-27T07:16:42.951Z,77.73
2022-12-27T07:19:29.490Z,77.92
2022-12-27T07:22:15.908Z,77.58
2022-12-27T07:25:02.129Z,77.47
2022-12-27T07:27:48.852Z,77.27
2022-12-27T07:30:35.052Z,76.72
2022-12-27T07:33:21.181Z,76.38
2022-12-27T07:36:17.875Z,76.39
2022-12-27T07:39:04.532Z,75.52
2022-12-27T07:41:50.788Z,75.43
2022-12-27T07:44:37.600Z,75.01
2022-12-27T07:47:23.706Z,74.31
2022-12-27T07:50:10.144Z,74.33
2022-12-27T07:52:56.787Z,74.24
2022-12-27T07:55:43.499Z,73.56
2022-12-27T07:58:29.937Z,73.83
2022-12-27T08:01:17.280Z,72.51
2022-12-27T08:04:04.799Z,72.53
2022-12-27T08:06:51.174Z,71.42
2022-12-27T08:09:38.865Z,70.88
2022-12-27T08:12:25.572Z,70.65
2022-12-27T08:15:12.630Z,70.43
2022-12-27T08:17:58.995Z,70.39
2022-12-27T08:20:45.353Z,69.35
2022-12-27T08:23:31.947Z,68.66
2022-12-27T08:26:18.254Z,67.33
2022-12-27T08:29:05.109Z,66.95
2022-12-27T08:31:51.768Z,65.15
2022-12-27T08:34:38.062Z,63.37
2022-12-27T08:37:24.661Z,64.65
2022-12-27T08:40:11.638Z,64.16
2022-12-27T08:42:59.305Z,64.29
2022-12-27T08:45:45.693Z,64.97
2022-12-27T08:48:33.492Z,64.96
2022-12-27T08:51:32.767Z,65.05
2022-12-27T08:54:19.670Z,64.93
2022-12-27T08:57:06.227Z,64.94
2022-12-27T08:59:52.896Z,64.78
2022-12-27T09:02:39.655Z,64.90
2022-12-27T09:05:26.599Z,64.70
2022-12-27T09:08:13.182Z,64.69
2022-12-27T09:11:10.633Z,64.38
2022-12-27T09:13:58.551Z,64.04
2022-12-27T09:16:44.987Z,64.07
2022-12-27T09:19:31.268Z,64.10
2022-12-27T09:22:18.326Z,63.37
2022-12-27T09:25:05.275Z,63.39
2022-12-27T09:27:51.729Z,63.57
2022-12-27T09:30:38.242Z,63.11
2022-12-27T09:33:24.925Z,63.14
2022-12-27T09:36:13.281Z,62.30
2022-12-27T09:38:59.919Z,62.29
2022-12-27T09:45:28.672Z,62.43
2022-12-27T09:48:36.960Z,61.47
2022-12-27T09:51:32.555Z,61.94
2022-12-27T09:54:24.243Z,61.65
2022-12-27T09:57:33.252Z,60.54
2022-12-27T10:00:34.324Z,58.63
2022-12-27T10:03:25.895Z,56.79
2022-12-27T10:06:30.586Z,56.44
2022-12-27T10:09:23.464Z,56.27
2022-12-27T10:12:29.752Z,55.85
2022-12-27T10:15:36.443Z,56.34
2022-12-27T10:18:45.579Z,57.50
2022-12-27T10:21:34.172Z,57.91
2022-12-27T10:24:25.356Z,57.75
2022-12-27T10:27:22.908Z,58.50
2022-12-27T10:30:17.732Z,58.54
2022-12-27T10:33:04.007Z,58.43
2022-12-27T10:35:50.647Z,58.52
2022-12-27T10:38:37.227Z,59.19
2022-12-27T10:41:29.371Z,59.37
2022-12-27T10:44:16.047Z,59.11
2022-12-27T10:47:02.229Z,60.01
2022-12-27T10:50:03.403Z,60.10
2022-12-27T10:52:54.151Z,60.75
2022-12-27T10:55:44.408Z,61.24
2022-12-27T10:58:46.652Z,61.34
2022-12-27T11:01:33.961Z,61.05
2022-12-27T11:04:23.651Z,59.55
2022-12-27T11:07:15.751Z,59.56
2022-12-27T11:10:14.716Z,60.04
2022-12-27T11:13:03.254Z,59.44
2022-12-27T11:15:58.535Z,59.76
2022-12-27T11:18:50.249Z,59.96
2022-12-27T11:21:38.017Z,59.33
2022-12-27T11:24:24.498Z,59.24
2022-12-27T11:27:20.071Z,60.27
2022-12-27T11:30:07.500Z,60.92
2022-12-27T11:32:54.009Z,60.61
2022-12-27T11:35:46.968Z,60.49
2022-12-27T11:38:34.227Z,60.91
2022-12-27T11:41:27.671Z,61.13
2022-12-27T11:44:23.007Z,60.92
2022-12-27T11:47:13.468Z,59.95
2022-12-27T11:50:22.472Z,59.92
2022-12-27T11:53:21.099Z,60.77
2022-12-27T11:56:27.565Z,60.15
2022-12-27T11:59:25.780Z,59.54
2022-12-27T12:02:22.453Z,59.35
2022-12-27T12:05:27.266Z,59.73
2022-12-27T12:08:17.030Z,60.23
2022-12-27T12:11:22.580Z,60.81
2022-12-27T12:14:37.666Z,60.90
2022-12-27T12:17:50.749Z,61.66
2022-12-27T12:21:01.368Z,61.20
2022-12-27T12:24:19.975Z,61.32
2022-12-27T12:27:27.854Z,62.10
2022-12-27T12:30:33.566Z,62.50
2022-12-27T12:33:41.564Z,62.59
2022-12-27T12:36:30.776Z,62.85
2022-12-27T12:40:11.889Z,63.02
2022-12-27T12:43:06.256Z,62.75
2022-12-27T12:46:02.229Z,62.85
2022-12-27T12:49:14.757Z,63.22
2022-12-27T12:52:31.474Z,63.09
2022-12-27T12:55:20.301Z,63.54
2022-12-27T12:58:39.481Z,63.36
2022-12-27T13:01:51.032Z,63.05
2022-12-27T13:04:55.952Z,63.14
2022-12-27T13:08:03.488Z,62.85
2022-12-27T13:11:02.260Z,63.10
2022-12-27T13:14:03.950Z,63.28
2022-12-27T13:16:56.345Z,63.72
2022-12-27T13:20:14.147Z,63.74
2022-12-27T13:23:25.792Z,64.05
2022-12-27T13:26:41.732Z,64.49
2022-12-27T13:29:45.163Z,64.74
2022-12-27T13:32:37.528Z,65.15
2022-12-27T13:35:50.502Z,65.31
2022-12-27T13:39:08.802Z,65.68
2022-12-27T13:42:17.372Z,66.07
2022-12-27T13:45:46.499Z,66.47
2022-12-27T13:48:52.613Z,66.11
2022-12-27T13:51:48.425Z,66.40
2022-12-27T13:54:45.270Z,66.85
2022-12-27T13:57:56.205Z,66.85
2022-12-27T14:01:19.897Z,67.07
2022-12-27T14:04:29.620Z,66.98
2022-12-27T14:07:35.169Z,67.16
2022-12-27T14:10:47.885Z,67.32
2022-12-27T14:13:40.354Z,67.27
2022-12-27T14:16:38.822Z,67.40
2022-12-27T14:19:35.479Z,67.28
2022-12-27T14:22:21.958Z,66.95
2022-12-27T14:25:42.896Z,67.15
2022-12-27T14:28:54.738Z,67.38
2022-12-27T14:32:02.315Z,66.99
2022-12-27T14:35:04.303Z,66.80
2022-12-27T14:38:18.082Z,66.76
2022-12-27T14:41:23.455Z,67.17
2022-12-27T14:44:43.373Z,67.14
2022-12-27T14:48:10.387Z,67.42
2022-12-27T14:55:11.808Z,67.53
2022-12-27T14:58:37.527Z,67.34
2022-12-27T15:01:44.358Z,67.65
2022-12-27T15:04:43.357Z,67.21
2022-12-27T15:07:41.822Z,67.27
2022-12-27T15:10:53.539Z,67.26
2022-12-27T15:14:10.531Z,66.71
2022-12-27T15:17:09.017Z,66.45
2022-12-27T15:20:07.018Z,66.85
2022-12-27T15:23:05.232Z,66.78
2022-12-27T15:26:10.201Z,66.49
2022-12-27T15:29:27.797Z,66.46
2022-12-27T15:32:39.479Z,66.59
2022-12-27T15:35:32.067Z,67.07
2022-12-27T15:38:27.180Z,67.11
2022-12-27T15:41:41.365Z,67.11
2022-12-27T15:44:52.635Z,67.24
2022-12-27T15:47:52.098Z,67.00
2022-12-27T15:50:43.229Z,67.22
2022-12-27T15:53:38.730Z,67.47
2022-12-27T15:56:37.335Z,67.48
2022-12-27T15:59:33.900Z,67.18
2022-12-27T16:02:23.643Z,67.53
2022-12-27T16:05:19.177Z,67.41
2022-12-27T16:08:08.590Z,67.43
2022-12-27T16:10:55.812Z,67.45
2022-12-27T16:13:47.164Z,67.93
2022-12-27T16:16:40.175Z,67.62
2022-12-27T16:19:40.749Z,68.15
2022-12-27T16:22:41.915Z,68.26
2022-12-27T16:25:34.387Z,68.38
2022-12-27T16:28:24.745Z,68.25
2022-12-27T16:31:11.817Z,68.09
2022-12-27T16:34:00.079Z,68.34
2022-12-27T16:36:47.872Z,68.49
2022-12-27T16:39:40.035Z,68.54
2022-12-27T16:42:45.975Z,68.60
2022-12-27T16:45:38.842Z,68.79
2022-12-27T16:49:23.452Z,68.87
2022-12-27T16:52:12.783Z,69.17
2022-12-27T16:55:26.721Z,69.15
2022-12-27T16:58:18.720Z,69.54
2022-12-27T17:01:36.096Z,69.69
2022-12-27T17:05:11.239Z,69.65
2022-12-27T17:07:57.580Z,69.69
2022-12-27T17:10:50.160Z,70.01
2022-12-27T17:13:57.141Z,70.00
2022-12-27T17:16:48.941Z,70.46
2022-12-27T17:19:40.578Z,70.35
2022-12-27T17:22:33.938Z,70.39
2022-12-27T17:25:22.882Z,70.27
2022-12-27T17:28:16.592Z,70.03
2022-12-27T17:31:21.791Z,70.11
2022-12-27T17:34:21.983Z,70.20
2022-12-27T17:37:29.540Z,70.17
2022-12-27T17:40:28.140Z,70.31
2022-12-27T17:43:52.229Z,70.39
2022-12-27T17:46:50.379Z,70.29
2022-12-27T17:49:36.571Z,70.33
2022-12-27T17:52:43.737Z,70.43
2022-12-27T17:55:48.561Z,70.57
2022-12-27T17:58:35.148Z,70.21
2022-12-27T18:01:21.790Z,70.48
2022-12-27T18:04:08.431Z,70.55
2022-12-27T18:06:59.946Z,71.05
2022-12-27T18:09:51.099Z,71.26
2022-12-27T18:12:38.293Z,71.67
2022-12-27T18:15:26.292Z,71.35
2022-12-27T18:18:34.659Z,71.59
2022-12-27T18:21:28.393Z,71.75
2022-12-27T18:24:24.395Z,71.97
2022-12-27T18:27:19.330Z,72.15
2022-12-27T18:30:07.995Z,72.24
2022-12-27T18:32:54.460Z,72.00
2022-12-27T18:35:42.924Z,72.42
2022-12-27T18:38:35.031Z,72.25
2022-12-27T18:41:21.534Z,72.23
2022-12-27T18:44:12.446Z,72.35
2022-12-27T18:47:00.076Z,72.63
2022-12-27T18:49:48.616Z,72.86
2022-12-27T18:52:38.354Z,72.68
2022-12-27T18:55:28.868Z,72.75
2022-12-27T18:58:20.755Z,72.68
2022-12-27T19:01:19.371Z,73.30
2022-12-27T19:04:15.195Z,73.48
2022-12-27T19:07:10.891Z,73.00
2022-12-27T19:09:58.149Z,73.08
2022-12-27T19:12:44.440Z,73.35
2022-12-27T19:15:40.536Z,73.05
2022-12-27T19:18:29.312Z,72.87
2022-12-27T19:21:15.474Z,72.88
2022-12-27T19:24:21.957Z,72.61
2022-12-27T19:27:16.366Z,72.60
2022-12-27T19:30:02.819Z,72.48
2022-12-27T19:32:49.276Z,72.08
2022-12-27T19:35:36.466Z,72.32
2022-12-27T19:38:23.831Z,72.23
2022-12-27T19:41:16.447Z,71.87
2022-12-27T19:44:03.479Z,72.15
2022-12-27T19:46:50.201Z,72.37
2022-12-27T19:49:45.165Z,72.15
2022-12-27T19:52:31.915Z,72.10
2022-12-27T19:55:21.198Z,71.85
2022-12-27T19:58:18.680Z,71.60
2022-12-27T20:01:05.356Z,71.70
2022-12-27T20:03:51.717Z,71.59
2022-12-27T20:06:37.883Z,71.83
2022-12-27T20:09:24.039Z,72.00
2022-12-27T20:12:10.341Z,71.80
2022-12-27T20:14:56.668Z,71.82
2022-12-27T20:17:45.325Z,71.82
2022-12-27T20:20:31.918Z,71.68
2022-12-27T20:23:18.701Z,71.42
2022-12-27T20:26:04.941Z,71.93
2022-12-27T20:28:51.822Z,72.00
2022-12-27T20:31:44.465Z,72.34
2022-12-27T20:34:31.634Z,72.30
2022-12-27T20:37:24.143Z,72.42
2022-12-27T20:40:11.304Z,72.75
2022-12-27T20:42:58.032Z,72.42
2022-12-27T20:45:45.615Z,72.81
2022-12-27T20:48:32.146Z,72.39
2022-12-27T20:51:20.611Z,72.51
2022-12-27T20:54:07.031Z,72.26
2022-12-27T20:56:53.692Z,72.00
2022-12-27T20:59:40.133Z,71.97
2022-12-27T21:02:27.578Z,71.51
2022-12-27T21:05:14.169Z,71.39
2022-12-27T21:08:00.851Z,71.50
2022-12-27T21:10:47.283Z,71.50
2022-12-27T21:13:36.432Z,71.54
2022-12-27T21:16:24.899Z,71.26
2022-12-27T21:19:11.361Z,71.48
2022-12-27T21:21:58.136Z,71.39
2022-12-27T21:24:44.459Z,71.69
2022-12-27T21:27:30.942Z,71.86
2022-12-27T21:30:17.305Z,71.94
2022-12-27T21:33:04.072Z,72.19
2022-12-27T21:36:01.625Z,72.45
2022-12-27T21:38:48.337Z,72.54
2022-12-27T21:41:36.192Z,72.70
2022-12-27T21:44:25.414Z,73.13
2022-12-27T21:47:11.861Z,73.05
2022-12-27T21:49:58.587Z,73.13
2022-12-27T21:52:45.252Z,73.03
2022-12-27T21:55:31.463Z,73.37
2022-12-27T21:58:17.508Z,73.68
2022-12-27T22:01:09.201Z,73.92
2022-12-27T22:03:56.270Z,73.84
2022-12-27T22:06:46.773Z,74.29
2022-12-27T22:09:33.788Z,74.77
2022-12-27T22:12:20.510Z,74.83
2022-12-27T22:15:07.183Z,75.05
2022-12-27T22:17:54.104Z,74.46
2022-12-27T22:20:46.655Z,74.50
2022-12-27T22:23:34.392Z,74.58
2022-12-27T22:26:22.891Z,74.45
2022-12-27T22:29:09.245Z,74.56
2022-12-27T22:31:55.414Z,74.36
2022-12-27T22:34:41.731Z,74.60
2022-12-27T22:37:28.141Z,74.90
2022-12-27T22:40:30.793Z,74.82
2022-12-27T22:43:20.725Z,75.24
2022-12-27T22:46:08.315Z,74.94
2022-12-27T22:48:56.432Z,75.06
2022-12-27T22:51:42.898Z,75.15
2022-12-27T22:55:03.153Z,75.36
2022-12-27T22:57:35.593Z,74.94
2022-12-27T23:00:21.839Z,74.87
2022-12-27T23:03:08.405Z,75.07
2022-12-27T23:06:00.894Z,74.61
2022-12-27T23:08:47.635Z,74.68
2022-12-27T23:11:35.951Z,74.53
2022-12-27T23:14:22.255Z,74.81
2022-12-27T23:17:08.834Z,75.12
2022-12-27T23:19:54.935Z,74.48
2022-12-27T23:22:41.140Z,74.70
2022-12-27T23:25:27.590Z,74.89
2022-12-27T23:28:15.390Z,74.50
2022-12-27T23:31:01.916Z,74.74
2022-12-27T23:33:48.808Z,74.75
2022-12-27T23:36:35.410Z,74.89
2022-12-27T23:39:21.879Z,74.84
2022-12-27T23:42:08.485Z,75.21
2022-12-27T23:44:54.728Z,74.87
2022-12-27T23:47:41.111Z,74.81
2022-12-27T23:50:27.413Z,75.30
2022-12-27T23:53:14.146Z,75.28
2022-12-27T23:56:22.404Z,75.21
2022-12-27T23:59:09.520Z,75.17
